CYJF

Fort Liard Airport

Fort Liard, Northwest Territories, Canada
METAR CYJF 221500Z 24004KT 210V320 15SM FEW170 SCT230 BKN240 14/09 A2972 RMK AC2CC1CI4 SLP068 DENSITY ALT 1100FT
Observed Flight Rules
May-22 @ 15:00 UTC (46 minutes ago) Visual Flight Rules
Wind Visibility Clouds
240° at 4 knots 15 miles
  • Few at 17,000' AGL
  • Scattered at 23,000' AGL
  • Broken at 24,000' AGL
Temperatures Readings
Current 14°C / 57°F
Dewpoint 9°C / 48°F
Humidity 72%
Altimeter 29.72" Hg
Pressure 1006.8 hPa
Elevation 215
METAR CYJF 221500Z 24004KT 210V320 15SM FEW170 SCT230 BKN240 14/09 A2972 RMK AC2CC1CI4 SLP068 DENSITY ALT 1100FT
Observed Flight Rules
May-22 @ 15:00 UTC
(46 minutes ago)
VFR
Wind Visibility
240° at 4 knots 15 miles
Clouds
  • Few at 17,000' AGL
  • Scattered at 23,000' AGL
  • Broken at 24,000' AGL
Temperature Dewpoint
14°C / 57°F 9°C / 48°F
Humidity Altimeter Pressure
72% 29.72" Hg 1006.8 hPa